Nearby METAR Reports

 

KSJC - San Jose, California, USA
Distance from station: NE 14km
Updated: 18/01/2022 05:37
Partly cloudy
Partly cloudy
 Wind from calm
Wind: Calm
Temperature: 7°C
Dew Point: 4°C
Humidity: 81%
Barometer: 1019.6 hPa
Clouds: Partly cloudy
Visibility: 13 km
Cloud details: Partly cloudy 213 m
2022/01/18 13:37 KSJC 181337Z 00000KT 8SM SCT007 07/04 A3011 RMK AO2 T00670044
KNUQ - Moffett Nas/Mtn, California, USA
Distance from station: N 14km
Updated: 18/01/2022 05:35
Overcast
Overcast
 Wind from calm
Wind: Calm
Temperature: 7°C
Dew Point: 5°C
Humidity: 87%
Barometer: 1019.6 hPa
Clouds: Overcast
Visibility: 16 km
Cloud details: Overcast 152 m
2022/01/18 13:35 KNUQ 181335Z AUTO 00000KT 10SM OVC005 07/05 A3011 RMK AO2
 
KPAO - Palo Alto, California, USA
Distance from station: NNW 23km
Updated: 17/01/2022 20:47
NOT Current
Clear
Clear
 Wind from calm
Wind: Calm
Temperature: 9°C
Dew Point: 6°C
Humidity: 82%
Barometer: 1018.3 hPa
Clouds: Clear
Visibility: 16 km
2022/01/18 04:47 KPAO 180447Z 00000KT 10SM SKC 09/06 A3007 RMK LAST
KRHV - San Jose/Reid, California, USA
Distance from station: ENE 19km
Updated: 17/01/2022 21:50
NOT Current
Mostly cloudy
Mostly cloudy
 Wind from calm
Wind: Calm
Temperature: 12°C
Dew Point: 7°C
Humidity: 72%
Barometer: 1018.6 hPa
Clouds: Mostly cloudy
Visibility: 16 km
Cloud details: Mostly cloudy 3048 m
2022/01/18 05:50 KRHV 180550Z 00000KT 10SM BKN100 12/07 A3008 RMK LAST
 
KOAK - Oakland, California, USA
Distance from station: NNW 50km
Updated: 18/01/2022 04:53
Shallow fog, Few clouds
Shallow fog, Few clouds
 Wind from ENE
Wind: ENE 6 km/h
Temperature: 6°C
Dew Point: 6°C
Humidity: 100%
Barometer: 1019.6 hPa
Summary: Shallow Fog
Clouds: Few Clouds
Visibility: 16 km
Cloud details: Few Clouds 274 m
Few Clouds 3658 m
2022/01/18 12:53 KOAK 181253Z 07003KT 10SM MIFG FEW009 FEW120 06/06 A3011 RMK AO2 SLP196 T00610056 $
KSQL - San Carlos Airpo, California, USA
Distance from station: NW 34km
Updated: 18/01/2022 05:35
Clear
Clear
 Wind from calm
Wind: Calm
Temperature: 7°C
Dew Point: 5°C
Humidity: 87%
Barometer: 1020 hPa
Clouds: Clear
Visibility: 16 km
2022/01/18 13:35 KSQL 181335Z AUTO 00000KT 10SM CLR 07/05 A3012 RMK AO2
 
KSFO - San Francisco, California, USA
Distance from station: NW 49km
Updated: 18/01/2022 04:56
Few Clouds
Few Clouds
 Wind from WSW
Wind: WSW 7 km/h
Temperature: 8°C
Wind Chill: 7°C
Dew Point: 7°C
Humidity: 93%
Barometer: 1019.3 hPa
Clouds: Few Clouds
Visibility: 16 km
Cloud details: Few Clouds 213 m
2022/01/18 12:56 KSFO 181256Z 24004KT 10SM FEW007 08/07 A3010 RMK AO2 SLP192 T00830072
KE16 - San Martin, California, USA
Distance from station: ESE 43km
Updated: 18/01/2022 05:30
Few Clouds
Few Clouds
 Wind from calm
Wind: Calm
Temperature: 5°C
Dew Point: 5°C
Humidity: 100%
Barometer: 1020 hPa
Clouds: Few Clouds
Visibility: 14 km
Cloud details: Few Clouds 610 m
2022/01/18 13:30 KE16 181330Z AUTO 00000KT 9SM FEW020 05/05 A3012 RMK AO2
 
KWVI - Watsonville, California, USA
Distance from station: SSE 44km
Updated: 18/01/2022 05:30
Partly cloudy
Partly cloudy
 Wind from NNW
Wind: NNW 6 km/h
Temperature: 8°C
Dew Point: 7°C
Humidity: 93%
Barometer: 1019.3 hPa
Clouds: Partly cloudy
Visibility: 16 km
Cloud details: Partly cloudy 183 m
2022/01/18 13:30 KWVI 181330Z AUTO 33003KT 10SM SCT006 08/07 A3010 RMK AO2 T00780072
KHAF - Half Moon Bay, California, USA
Distance from station: WNW 50km
Updated: 18/01/2022 05:35
Overcast
Overcast
 Wind from calm
Wind: Calm
Temperature: 8°C
Dew Point: 8°C
Humidity: 100%
Barometer: 1020 hPa
Clouds: Overcast
Visibility: 13 km
Cloud details: Overcast 305 m
2022/01/18 13:35 KHAF 181335Z AUTO 00000KT 8SM OVC010 08/08 A3012 RMK AO2
 
KHWD - Hayward, California, USA
Distance from station: N 44km
Updated: 18/01/2022 04:54
Partly cloudy
Partly cloudy
 Wind from E
Wind: E 6 km/h
Temperature: 7°C
Dew Point: 4°C
Humidity: 81%
Barometer: 1019.3 hPa
Clouds: Partly cloudy
Visibility: 16 km
Cloud details: Partly cloudy 244 m
2022/01/18 12:54 KHWD 181254Z AUTO 09003KT 10SM SCT008 07/04 A3010 RMK AO2 SLP202 T00670039
KLVK - Livermore, California, USA
Distance from station: NNE 51km
Updated: 18/01/2022 04:53
Clear
Clear
 Wind from calm
Wind: Calm
Temperature: 5°C
Dew Point: 4°C
Humidity: 93%
Barometer: 1019 hPa
Clouds: Clear
Visibility: 16 km
2022/01/18 12:53 KLVK 181253Z AUTO 00000KT 10SM CLR 05/04 A3009 RMK AO2 SLP189 T00500039